Time;durP1;ratioP1;P1;durP2;ratioP2;P2;SDS_P1;SDS_P2;PMS_P1;PMS_P2;Temp;Humidity;BMP_temperature;BMP_pressure;BME280_temperature;BME280_humidity;BME280_pressure;Samples;Min_cycle;Max_cycle;Signal;HPM_P1;HPM_P2
2021/06/27 00:01:15;;;;;;;11.57;8.03;;;;;;;17.71;99.18;100582.35;715457;1176;114098;-87
2021/06/27 00:16:19;;;;;;;11.53;6.93;;;;;;;17.67;100.00;100590.82;715728;1177;114315;-87
2021/06/27 00:31:22;;;;;;;7.95;5.63;;;;;;;17.49;100.00;100596.41;715516;1174;114325;-90
2021/06/27 00:46:24;;;;;;;11.27;6.00;;;;;;;17.05;100.00;100582.64;715590;1181;114783;-90
2021/06/27 01:01:26;;;;;;;11.53;6.40;;;;;;;16.54;100.00;100585.52;716014;1199;115579;-90
2021/06/27 01:16:28;;;;;;;12.23;7.00;;;;;;;16.46;100.00;100599.59;715976;1200;114146;-89
2021/06/27 01:31:31;;;;;;;13.70;7.23;;;;;;;16.02;100.00;100589.33;715909;1177;115019;-88
2021/06/27 01:46:33;;;;;;;12.83;7.05;;;;;;;15.97;100.00;100596.93;716240;1175;114085;-89
2021/06/27 02:01:37;;;;;;;14.87;8.60;;;;;;;15.87;100.00;100589.13;716211;1200;114082;-89
2021/06/27 02:16:40;;;;;;;13.08;7.83;;;;;;;15.61;100.00;100594.48;715826;1176;114049;-87
2021/06/27 02:31:49;;;;;;;10.13;6.93;;;;;;;15.57;100.00;100604.57;716064;1200;114141;-88
2021/06/27 02:46:51;;;;;;;13.30;8.28;;;;;;;15.65;100.00;100590.52;716320;1185;114169;-86
2021/06/27 03:01:53;;;;;;;17.13;9.48;;;;;;;15.76;100.00;100598.17;724192;1177;113159;-85
2021/06/27 03:16:57;;;;;;;11.95;7.78;;;;;;;15.74;100.00;100588.73;729234;1193;114112;-87
2021/06/27 03:31:59;;;;;;;11.50;7.30;;;;;;;15.98;100.00;100580.04;716817;1182;114011;-87
2021/06/27 03:47:01;;;;;;;23.30;12.55;;;;;;;16.38;100.00;100553.78;716338;1184;114586;-86
2021/06/27 04:02:03;;;;;;;16.83;11.80;;;;;;;16.96;100.00;100549.22;716249;1203;114644;-86
2021/06/27 04:17:06;;;;;;;17.15;10.33;;;;;;;17.28;100.00;100555.38;716723;1199;114339;-90
2021/06/27 04:32:09;;;;;;;14.50;9.55;;;;;;;17.80;100.00;100538.00;717216;1182;114557;-89
2021/06/27 04:47:12;;;;;;;13.35;8.63;;;;;;;18.28;100.00;100529.88;716571;1199;114702;-88
2021/06/27 05:02:14;;;;;;;16.28;9.70;;;;;;;18.96;100.00;100551.12;719388;1166;115191;-81
2021/06/27 05:17:16;;;;;;;15.17;8.47;;;;;;;19.17;100.00;100541.58;716121;1180;114960;-83
2021/06/27 05:32:18;;;;;;;13.18;7.83;;;;;;;19.52;100.00;100552.41;716087;1200;114696;-82
2021/06/27 05:47:20;;;;;;;12.10;8.63;;;;;;;19.95;100.00;100549.81;716109;1180;114765;-83
2021/06/27 06:02:23;;;;;;;12.10;6.95;;;;;;;20.29;100.00;100546.41;715767;1200;116157;-82
2021/06/27 06:17:25;;;;;;;9.90;7.25;;;;;;;20.79;100.00;100566.89;715801;1199;114118;-82
2021/06/27 06:32:27;;;;;;;9.45;5.85;;;;;;;20.84;100.00;100568.95;716099;1203;115123;-82
2021/06/27 06:47:29;;;;;;;5.60;5.03;;;;;;;21.28;98.21;100567.75;714679;1199;113931;-78
2021/06/27 07:02:37;;;;;;;8.28;6.08;;;;;;;22.22;96.27;100567.97;714998;1199;114082;-77
2021/06/27 07:17:39;;;;;;;6.90;4.63;;;;;;;22.10;90.43;100576.62;715887;1199;113777;-79
2021/06/27 07:32:42;;;;;;;7.33;4.80;;;;;;;22.66;89.79;100569.22;715839;1177;113827;-84
2021/06/27 07:47:44;;;;;;;5.15;4.18;;;;;;;22.31;86.85;100577.42;716168;1199;114011;-83
2021/06/27 08:02:46;;;;;;;4.73;4.07;;;;;;;22.97;86.30;100575.72;716028;1199;114542;-78
2021/06/27 08:17:53;;;;;;;4.57;4.13;;;;;;;23.78;82.25;100592.27;714970;1178;113727;-85
2021/06/27 08:32:56;;;;;;;5.25;3.63;;;;;;;23.60;80.62;100575.06;719669;1199;115335;-85
2021/06/27 08:47:58;;;;;;;6.63;3.70;;;;;;;24.18;79.09;100562.56;732750;1199;112755;-81
2021/06/27 09:03:00;;;;;;;6.17;3.57;;;;;;;24.77;74.73;100556.06;719047;1189;113718;-84
2021/06/27 09:18:07;;;;;;;4.00;2.70;;;;;;;26.11;69.14;100554.33;719397;1200;114684;-82
2021/06/27 09:33:22;;;;;;;4.47;2.67;;;;;;;25.88;67.02;100574.68;716242;1199;115747;-84
2021/06/27 09:48:48;;;;;;;4.58;2.90;;;;;;;26.82;62.94;100565.11;715917;1202;114057;-83
2021/06/27 10:03:56;;;;;;;5.40;2.38;;;;;;;27.04;61.21;100557.19;716213;1174;113853;-77
2021/06/27 10:19:02;;;;;;;2.50;2.30;;;;;;;27.85;58.04;100551.72;714712;1200;114196;-78
2021/06/27 10:34:06;;;;;;;2.50;2.30;;;;;;;27.95;55.97;100547.55;714786;1174;113643;-77
2021/06/27 10:49:34;;;;;;;3.30;1.90;;;;;;;28.89;56.01;100529.80;714652;1200;114196;-78
2021/06/27 11:04:36;;;;;;;2.53;1.88;;;;;;;28.52;55.24;100528.48;714449;1180;113721;-78
2021/06/27 11:19:41;;;;;;;6.10;5.28;;;;;;;28.66;54.48;100517.36;714278;1177;113767;-77
2021/06/27 11:34:57;;;;;;;4.45;3.00;;;;;;;28.20;53.80;100518.34;714652;1199;114818;-77
2021/06/27 11:50:26;;;;;;;2.27;1.83;;;;;;;29.54;54.09;100516.45;714647;1176;114035;-77
2021/06/27 12:05:29;;;;;;;4.85;2.10;;;;;;;29.92;54.27;100495.72;714502;1203;114413;-78
2021/06/27 12:20:38;;;;;;;2.20;2.00;;;;;;;29.31;51.93;100495.97;717074;1196;113710;-86
2021/06/27 12:35:42;;;;;;;4.55;2.88;;;;;;;30.29;53.63;100496.73;716588;1200;114743;-85
2021/06/27 12:50:46;;;;;;;9.25;2.15;;;;;;;30.24;51.77;100480.50;715556;1176;114310;-80
2021/06/27 13:05:58;;;;;;;3.98;1.80;;;;;;;30.81;52.71;100473.45;714713;1200;113821;-77
2021/06/27 13:21:01;;;;;;;1.68;1.40;;;;;;;31.61;51.29;100475.80;715929;1202;114137;-78
2021/06/27 13:36:08;;;;;;;3.48;3.10;;;;;;;31.41;50.83;100456.78;719831;1199;114193;-78
2021/06/27 13:51:11;;;;;;;2.65;1.85;;;;;;;30.92;50.72;100447.22;715067;1200;114966;-77
2021/06/27 14:06:15;;;;;;;2.63;1.73;;;;;;;31.53;51.12;100449.21;715639;1200;114181;-78
2021/06/27 14:21:17;;;;;;;4.07;2.40;;;;;;;29.32;53.46;100448.98;725311;1199;114817;-77
2021/06/27 14:36:21;;;;;;;2.45;1.80;;;;;;;29.50;54.77;100428.88;726539;1199;114386;-78
2021/06/27 14:51:23;;;;;;;5.38;2.00;;;;;;;30.34;54.56;100426.42;716739;1199;113920;-77
2021/06/27 15:06:27;;;;;;;5.37;2.17;;;;;;;30.59;55.12;100409.49;714335;1202;113813;-81
2021/06/27 15:21:29;;;;;;;1.88;1.68;;;;;;;30.61;54.26;100415.47;714460;1203;114659;-84
2021/06/27 15:36:31;;;;;;;4.13;2.25;;;;;;;30.67;54.71;100398.17;714431;1198;113977;-84
2021/06/27 15:51:34;;;;;;;3.18;2.65;;;;;;;30.00;54.74;100407.89;714356;1203;114403;-82
2021/06/27 16:06:36;;;;;;;3.75;2.68;;;;;;;29.27;55.47;100403.82;714349;1200;114217;-82
2021/06/27 16:21:40;;;;;;;2.85;2.10;;;;;;;28.22;58.54;100397.55;714687;1200;114509;-84
2021/06/27 16:36:46;;;;;;;4.58;3.00;;;;;;;27.67;59.68;100404.56;718979;1198;114218;-80
2021/06/27 16:51:48;;;;;;;3.97;3.30;;;;;;;27.62;60.97;100412.56;714381;1200;113780;-79
2021/06/27 17:06:51;;;;;;;2.90;2.60;;;;;;;27.19;62.70;100408.63;715482;1200;114308;-77
2021/06/27 17:21:56;;;;;;;7.03;3.53;;;;;;;26.73;63.32;100414.78;715204;1203;114186;-80
2021/06/27 17:36:59;;;;;;;3.00;2.70;;;;;;;26.26;65.32;100406.81;714445;1178;113837;-85
2021/06/27 17:52:02;;;;;;;3.97;3.47;;;;;;;25.88;66.48;100392.81;714174;1200;115458;-78
2021/06/27 18:07:04;;;;;;;6.83;5.48;;;;;;;25.53;67.79;100401.66;714082;1200;114111;-79
2021/06/27 18:22:07;;;;;;;9.98;8.80;;;;;;;25.38;68.78;100402.12;714022;1199;115341;-78
2021/06/27 18:37:09;;;;;;;8.63;6.38;;;;;;;25.22;69.09;100408.10;713925;1200;114256;-80
2021/06/27 18:52:12;;;;;;;4.83;3.73;;;;;;;24.56;71.12;100408.77;713982;1199;114585;-78
2021/06/27 19:07:14;;;;;;;11.85;7.55;;;;;;;24.25;71.83;100407.05;714327;1203;114923;-77
2021/06/27 19:22:16;;;;;;;4.30;3.77;;;;;;;23.48;73.70;100426.05;714667;1200;115511;-77
2021/06/27 19:37:18;;;;;;;9.58;6.03;;;;;;;23.05;75.55;100444.39;715109;1200;114203;-78
2021/06/27 19:52:20;;;;;;;9.10;4.58;;;;;;;22.61;78.05;100454.06;715133;1200;113678;-80
2021/06/27 20:07:23;;;;;;;6.13;4.13;;;;;;;22.28;79.57;100465.63;732756;1198;113939;-81
2021/06/27 20:22:25;;;;;;;7.35;4.83;;;;;;;22.05;80.81;100466.89;717567;1199;113848;-80
2021/06/27 20:37:27;;;;;;;6.68;4.45;;;;;;;21.61;83.33;100462.97;714386;1199;114201;-80
2021/06/27 20:52:29;;;;;;;8.40;4.10;;;;;;;21.23;84.92;100468.82;714076;1200;115466;-81
2021/06/27 21:07:32;;;;;;;9.15;3.63;;;;;;;20.81;87.38;100476.05;715002;1199;114483;-80
2021/06/27 21:22:35;;;;;;;5.75;4.48;;;;;;;20.60;89.00;100475.09;714418;1202;114561;-80
2021/06/27 21:37:38;;;;;;;6.85;4.70;;;;;;;20.52;90.33;100484.09;714120;1177;113898;-79
2021/06/27 21:52:42;;;;;;;9.73;5.28;;;;;;;20.21;90.66;100481.83;714145;1199;113852;-79
2021/06/27 22:07:44;;;;;;;11.50;5.38;;;;;;;19.74;92.81;100487.57;714267;1174;113871;-79
2021/06/27 22:22:47;;;;;;;12.60;7.35;;;;;;;19.70;94.28;100496.92;714558;1203;114313;-79
2021/06/27 22:37:50;;;;;;;8.08;5.85;;;;;;;19.32;95.04;100489.20;714388;1187;113950;-82
2021/06/27 22:52:54;;;;;;;9.83;6.55;;;;;;;19.17;97.10;100486.55;714516;1200;113766;-81
2021/06/27 23:07:59;;;;;;;16.03;7.23;;;;;;;19.08;98.59;100493.83;714700;1175;114260;-80
2021/06/27 23:23:01;;;;;;;12.87;8.53;;;;;;;19.11;99.07;100504.08;714143;1199;114752;-81
2021/06/27 23:38:03;;;;;;;12.30;7.05;;;;;;;19.21;99.79;100506.44;714022;1200;114205;-81
2021/06/27 23:53:05;;;;;;;7.30;5.35;;;;;;;19.23;99.92;100485.81;714160;1199;115008;-81
